SBMESBCP

Guest
Details From SBME - Macae
To SBCP - Bartolomeu Lisandro
Flight Number -
Tags Generated
Created
Modified
Stats Distance 46 nm / 86 km
Max Altitude 0 ft / 0 m
Waypoints 2
Social Downloads 1
Likes 0
Share VATSIM

Download

Looking for another format? Having issues loading an existing format? Contact us
Advertisement - Login to hide

Notes

Generated

Route

SBME SBCP

ID Type Via Altitude Latitude Longitude Leg Dist Tot Dist Heading (true) Name
O SBME APT - 0 ft / 0 m -22.34760˚ -41.76924˚ - 0 nm - -
O SBCP APT - 0 ft / 0 m -21.70313˚ -41.30712˚ 46 nm 46 nm 34° / 34° -

Altitude Profile

Advertisement - Login to hide

SBME

Details ICAO SBME (MEA)
Name MACAE
Region Brazil
Timezone America/Sao_Paulo (UTC-3.0)
Stats Elevation 8 ft / 2 m (AMSL)
Location -22.343032° -41.766035°
Runways 1
Magnetic Variation 23.328° W

METAR

SBME 222300Z 04005KT CAVOK 20/17 Q1018

Decode

TAF

TAF SBME 221500Z 2218/2306 09010KT CAVOK TX27/2218Z TN15/2306Z RMK PHD

Decode

Departure Runways

ID Width Length Bearing (true) Bearing (mag) Surface Threshold Offset Overrun Length
06 98 ft / 30 m 3,973 ft / 1,211 m 33.02° 56.35° Asphalt 0 ft / 0 m 0 ft / 0 m
24 98 ft / 30 m 3,973 ft / 1,211 m 213.01° 236.34° Asphalt 0 ft / 0 m 0 ft / 0 m

SBCP

Details ICAO SBCP (CAW)
Name Bartolomeu Lisandro
Region Brazil
Timezone America/Sao_Paulo (UTC-3.0)
Stats Elevation 57 ft / 17 m (AMSL)
Location -21.698334° -41.301668°
Runways 1
Magnetic Variation 23.512° W

METAR

SBCP 222300Z 06002KT CAVOK 20/18 Q1019

Decode

TAF

TAF SBCP 221500Z 2218/2306 07010KT CAVOK TX28/2218Z TN20/2223Z RMK PHD

Decode

Destination Runways

ID Width Length Bearing (true) Bearing (mag) Surface Threshold Offset Overrun Length
07 148 ft / 45 m 5,093 ft / 1,552 m 46.60° 70.11° Asphalt 0 ft / 0 m 0 ft / 0 m
25 148 ft / 45 m 5,093 ft / 1,552 m 226.60° 250.11° Asphalt 0 ft / 0 m 0 ft / 0 m

Popular Alternatives